Terminal Aerodrome Forecast
Issued by NWS

Home | Current Version | Previous Version | Text Only | Print | Product List | Glossary Off
Versions: 1 2 3 4 5 6 7 8 9 10 11 12 13 14 15 16 17 18 19 20 21 22 23 24

000
FTUS43 KMPX 280520
TAFRNH
TAF
KRNH 280520Z 2806/2906 16005KT P6SM VCSH BKN050 BKN120
      TEMPO 2806/2807 6SM SHRA OVC050
     FM280700 17005KT P6SM SCT020 OVC040
     FM281500 15006KT P6SM BKN035 OVC050
     FM282000 34013KT P6SM VCTS SCT025CB OVC050
     FM290000 36002KT P6SM SCT060=

USA.gov is the U.S. government's official web portal to all federal, state and local government web resources and services.